Time;durP1;ratioP1;P1;durP2;ratioP2;P2;SDS_P1;SDS_P2;PMS_P1;PMS_P2;Temp;Humidity;BMP_temperature;BMP_pressure;BME280_temperature;BME280_humidity;BME280_pressure;Samples;Min_cycle;Max_cycle;Signal;HPM_P1;HPM_P2
2021/12/03 00:00:24;;;;;;;14.60;7.63;;;;;;;0.23;100.00;98537.47;5073271;28;20188;-83
2021/12/03 00:02:53;;;;;;;11.27;7.43;;;;;;;0.22;100.00;98534.00;5069297;28;20200;-83
2021/12/03 00:05:21;;;;;;;10.00;7.40;;;;;;;0.23;100.00;98540.91;5069057;28;20231;-83
2021/12/03 00:07:50;;;;;;;10.30;6.90;;;;;;;0.21;100.00;98532.31;5070128;28;20203;-83
2021/12/03 00:10:23;;;;;;;11.83;6.93;;;;;;;0.19;100.00;98526.31;5068814;28;20209;-83
2021/12/03 00:12:54;;;;;;;10.57;6.43;;;;;;;0.25;100.00;98526.09;5031157;28;20198;-83
2021/12/03 00:15:25;;;;;;;10.30;6.50;;;;;;;0.19;100.00;98518.50;5025880;28;20197;-83
2021/12/03 00:17:55;;;;;;;10.93;7.17;;;;;;;0.23;100.00;98514.88;5014884;28;20217;-83
2021/12/03 00:20:25;;;;;;;11.73;6.70;;;;;;;0.21;100.00;98518.44;5030095;28;20193;-83
2021/12/03 00:22:57;;;;;;;11.10;7.13;;;;;;;0.25;100.00;98514.81;5030851;28;20206;-82
2021/12/03 00:25:26;;;;;;;10.67;7.30;;;;;;;0.27;100.00;98518.22;5023697;28;20208;-82
2021/12/03 00:27:55;;;;;;;9.60;6.90;;;;;;;0.21;100.00;98513.25;4992256;28;20214;-83
2021/12/03 00:30:24;;;;;;;10.43;7.23;;;;;;;0.21;100.00;98532.31;4995928;28;20249;-82
2021/12/03 00:32:53;;;;;;;12.63;7.30;;;;;;;0.12;100.00;98523.94;4995443;28;20206;-83
2021/12/03 00:35:22;;;;;;;10.90;6.80;;;;;;;0.11;100.00;98532.66;4993445;28;20206;-83
2021/12/03 00:37:51;;;;;;;11.50;6.83;;;;;;;0.01;100.00;98529.50;5013330;28;20264;-83
2021/12/03 00:40:25;;;;;;;10.57;6.80;;;;;;;-0.02;100.00;98534.78;5027097;28;20194;-83
2021/12/03 00:42:56;;;;;;;12.47;6.87;;;;;;;0.11;100.00;98545.69;5029496;28;20209;-83
2021/12/03 00:45:24;;;;;;;11.00;6.90;;;;;;;-0.10;100.00;98548.03;5041905;28;20309;-83
2021/12/03 00:47:53;;;;;;;10.60;6.80;;;;;;;-0.07;100.00;98547.97;5068852;28;20215;-82
2021/12/03 00:50:24;;;;;;;13.67;7.20;;;;;;;-0.21;100.00;98550.13;4988343;28;20227;-83
2021/12/03 00:52:53;;;;;;;12.07;6.80;;;;;;;-0.25;100.00;98558.06;4987568;28;20199;-83
2021/12/03 00:55:23;;;;;;;10.93;6.37;;;;;;;-0.16;100.00;98560.41;4992925;28;20191;-83
2021/12/03 00:57:52;;;;;;;11.77;6.63;;;;;;;-0.20;100.00;98564.81;4990449;28;20697;-83
2021/12/03 01:00:27;;;;;;;10.60;6.70;;;;;;;-0.08;100.00;98558.41;4990549;28;20218;-83
2021/12/03 01:02:58;;;;;;;11.77;6.83;;;;;;;-0.20;100.00;98570.03;4987510;28;20348;-82
2021/12/03 01:05:27;;;;;;;10.63;6.67;;;;;;;-0.46;100.00;98564.78;4987057;28;20666;-83
2021/12/03 01:07:56;;;;;;;10.20;6.87;;;;;;;-0.52;100.00;98562.34;5010570;28;20196;-82
2021/12/03 01:10:26;;;;;;;9.43;6.47;;;;;;;-0.43;100.00;98560.31;5069379;28;20199;-83
2021/12/03 01:12:55;;;;;;;10.13;6.60;;;;;;;-0.43;100.00;98562.06;5070773;28;20210;-83
2021/12/03 01:15:28;;;;;;;11.60;7.37;;;;;;;-0.22;100.00;98553.63;5072488;28;20204;-83
2021/12/03 01:17:56;;;;;;;13.87;7.27;;;;;;;-0.08;100.00;98551.47;5071925;28;20236;-82
2021/12/03 01:20:25;;;;;;;11.27;7.83;;;;;;;-0.16;100.00;98563.00;5073130;28;20196;-82
2021/12/03 01:22:55;;;;;;;11.20;7.33;;;;;;;-0.47;100.00;98569.13;5069995;28;20196;-82
2021/12/03 01:25:24;;;;;;;11.47;7.83;;;;;;;-0.65;100.00;98572.25;5073147;28;20193;-83
2021/12/03 01:27:53;;;;;;;12.43;7.90;;;;;;;-0.89;100.00;98581.56;5078832;28;20207;-82
2021/12/03 01:30:24;;;;;;;14.80;8.70;;;;;;;-0.92;100.00;98587.72;5064791;28;20188;-82
2021/12/03 01:32:58;;;;;;;12.67;8.70;;;;;;;-0.80;100.00;98591.72;5074844;28;20201;-83
2021/12/03 01:35:27;;;;;;;13.83;9.07;;;;;;;-1.02;100.00;98593.19;5074246;28;20204;-82
2021/12/03 01:37:56;;;;;;;14.87;9.07;;;;;;;-1.00;100.00;98600.06;5069249;28;20212;-83
2021/12/03 01:40:28;;;;;;;16.73;9.40;;;;;;;-0.99;100.00;98598.31;5065143;28;20200;-83
2021/12/03 01:42:57;;;;;;;16.23;10.17;;;;;;;-1.00;100.00;98601.78;5068958;28;20674;-82
2021/12/03 01:45:29;;;;;;;15.43;8.73;;;;;;;-0.84;100.00;98597.91;5069567;28;20204;-83
2021/12/03 01:48:02;;;;;;;16.20;10.00;;;;;;;-0.84;100.00;98603.09;5070674;28;20192;-82
2021/12/03 01:50:34;;;;;;;17.03;10.10;;;;;;;-0.83;100.00;98601.34;5068299;28;20228;-82
2021/12/03 01:53:04;;;;;;;17.77;10.27;;;;;;;-0.72;100.00;98607.09;5069066;28;20192;-82
2021/12/03 01:55:33;;;;;;;14.90;9.23;;;;;;;-0.72;100.00;98602.75;5068916;28;20643;-82
2021/12/03 01:58:01;;;;;;;16.17;10.17;;;;;;;-0.75;100.00;98608.06;5069371;28;20290;-82
2021/12/03 02:00:33;;;;;;;15.10;9.00;;;;;;;-0.72;100.00;98602.75;5065825;28;20196;-83
2021/12/03 02:03:06;;;;;;;16.70;9.17;;;;;;;-0.62;100.00;98604.19;5067193;28;20200;-82
2021/12/03 02:05:35;;;;;;;15.47;8.90;;;;;;;-0.72;100.00;98607.97;5070429;28;20193;-82
2021/12/03 02:08:04;;;;;;;14.43;8.67;;;;;;;-0.96;100.00;98606.88;5069740;28;20247;-83
2021/12/03 02:10:32;;;;;;;11.27;7.87;;;;;;;-0.99;100.00;98609.53;5066184;28;20208;-83
2021/12/03 02:13:01;;;;;;;12.47;8.27;;;;;;;-1.03;100.00;98607.94;5063523;28;20211;-83
2021/12/03 02:15:30;;;;;;;13.70;8.63;;;;;;;-0.99;100.00;98608.69;5025802;28;20209;-82
2021/12/03 02:17:59;;;;;;;13.80;9.47;;;;;;;-1.03;100.00;98613.13;5024332;28;20217;-83
2021/12/03 02:20:30;;;;;;;15.17;8.53;;;;;;;-1.03;100.00;98612.28;5027511;28;20201;-83
2021/12/03 02:23:00;;;;;;;15.87;9.30;;;;;;;-1.17;100.00;98604.81;5028013;28;20196;-82
2021/12/03 02:25:29;;;;;;;15.53;9.23;;;;;;;-1.18;100.00;98608.31;5030407;28;20186;-82
2021/12/03 02:27:59;;;;;;;14.93;9.03;;;;;;;-1.03;100.00;98609.69;5029073;28;20236;-82
2021/12/03 02:30:28;;;;;;;13.60;8.73;;;;;;;-0.95;100.00;98613.78;5029167;28;20285;-82
2021/12/03 02:32:56;;;;;;;14.83;9.07;;;;;;;-0.89;100.00;98608.41;5030795;28;20215;-82
2021/12/03 02:35:26;;;;;;;13.37;8.37;;;;;;;-0.77;100.00;98617.66;5066466;28;20199;-82
2021/12/03 02:37:55;;;;;;;13.40;8.10;;;;;;;-0.70;100.00;98606.16;5068817;28;20206;-82
2021/12/03 02:40:26;;;;;;;10.80;7.47;;;;;;;-0.47;100.00;98607.28;5071712;28;20196;-82
2021/12/03 02:42:54;;;;;;;13.77;8.37;;;;;;;-0.50;100.00;98621.19;5077479;28;20200;-82
2021/12/03 02:45:23;;;;;;;11.83;7.53;;;;;;;-0.49;100.00;98607.31;5074523;28;20192;-82
2021/12/03 02:47:51;;;;;;;10.27;6.87;;;;;;;-0.51;100.00;98616.91;5069794;28;20191;-82
2021/12/03 02:50:20;;;;;;;10.77;7.17;;;;;;;-0.46;100.00;98615.03;5067959;28;20219;-82
2021/12/03 02:52:51;;;;;;;10.20;7.13;;;;;;;-0.73;100.00;98616.66;5067367;28;20196;-82
2021/12/03 02:55:21;;;;;;;12.47;6.80;;;;;;;-0.92;100.00;98624.09;5073507;28;20207;-82
2021/12/03 02:57:52;;;;;;;9.43;6.90;;;;;;;-0.78;100.00;98628.06;5074196;28;20224;-82
2021/12/03 03:00:26;;;;;;;12.73;7.80;;;;;;;-0.90;100.00;98624.03;5073038;28;20204;-81
2021/12/03 03:02:57;;;;;;;10.07;7.50;;;;;;;-0.93;100.00;98631.94;5073951;28;20218;-81
2021/12/03 03:05:28;;;;;;;12.20;7.43;;;;;;;-0.98;100.00;98633.78;5074088;28;20196;-82
2021/12/03 03:07:57;;;;;;;12.20;7.87;;;;;;;-0.79;100.00;98634.16;5071641;28;20192;-82
2021/12/03 03:10:31;;;;;;;10.50;7.17;;;;;;;-0.99;100.00;98638.13;5069286;28;20199;-82
2021/12/03 03:13:01;;;;;;;10.57;7.27;;;;;;;-1.08;100.00;98635.78;5073673;28;20189;-82
2021/12/03 03:15:30;;;;;;;9.90;7.03;;;;;;;-1.26;100.00;98642.28;5072915;28;20196;-82
2021/12/03 03:18:10;;;;;;;12.30;7.53;;;;;;;-1.11;100.00;98645.41;5076607;28;20188;-82
2021/12/03 03:20:40;;;;;;;9.23;6.77;;;;;;;-0.95;100.00;98652.78;5069615;28;20208;-82
2021/12/03 03:23:12;;;;;;;12.13;7.00;;;;;;;-0.87;100.00;98649.94;5065274;28;20196;-81
2021/12/03 03:25:41;;;;;;;10.83;7.23;;;;;;;-0.86;100.00;98662.06;5069990;28;20196;-82
2021/12/03 03:28:12;;;;;;;10.93;7.40;;;;;;;-0.83;100.00;98653.34;5070661;28;20246;-82
2021/12/03 03:30:42;;;;;;;11.20;7.47;;;;;;;-0.80;100.00;98661.03;5069946;28;20269;-82
2021/12/03 03:33:11;;;;;;;11.20;7.27;;;;;;;-0.75;100.00;98657.44;5076357;28;20400;-82
2021/12/03 03:35:40;;;;;;;9.37;7.07;;;;;;;-0.77;100.00;98647.97;5024093;28;20192;-82
2021/12/03 03:38:09;;;;;;;10.43;7.33;;;;;;;-0.84;100.00;98641.25;5070786;28;20203;-82
2021/12/03 03:40:38;;;;;;;10.07;7.17;;;;;;;-0.95;100.00;98644.13;5074993;28;20196;-82
2021/12/03 03:43:06;;;;;;;10.13;7.27;;;;;;;-0.89;100.00;98643.94;5073556;28;20188;-82
2021/12/03 03:45:37;;;;;;;9.83;6.97;;;;;;;-0.99;100.00;98647.69;5073113;28;20192;-82
2021/12/03 03:48:07;;;;;;;10.00;7.27;;;;;;;-1.00;100.00;98651.16;5071029;28;20196;-82
2021/12/03 03:50:35;;;;;;;10.33;7.23;;;;;;;-0.91;100.00;98648.34;5070569;28;20224;-82
2021/12/03 03:53:03;;;;;;;10.83;7.70;;;;;;;-0.95;100.00;98647.56;5067907;28;20208;-82
2021/12/03 03:55:32;;;;;;;11.43;7.33;;;;;;;-0.99;100.00;98658.91;5075021;28;20196;-83
2021/12/03 03:58:04;;;;;;;10.50;7.27;;;;;;;-1.01;100.00;98660.72;5071630;28;20219;-82
2021/12/03 04:00:37;;;;;;;10.07;7.13;;;;;;;-1.08;100.00;98661.75;5075928;28;20226;-83
2021/12/03 04:03:07;;;;;;;13.33;8.17;;;;;;;-1.07;100.00;98660.84;5069174;28;20199;-83
2021/12/03 04:05:35;;;;;;;12.63;8.20;;;;;;;-1.09;100.00;98673.03;5074033;28;20224;-82
2021/12/03 04:08:05;;;;;;;11.13;8.20;;;;;;;-1.06;100.00;98664.31;5071409;28;20196;-82
2021/12/03 04:10:34;;;;;;;12.17;7.83;;;;;;;-1.10;100.00;98671.34;5069236;28;20207;-83
2021/12/03 04:13:02;;;;;;;12.57;8.30;;;;;;;-1.12;100.00;98659.28;5073540;28;20266;-83
2021/12/03 04:15:30;;;;;;;13.57;8.60;;;;;;;-0.84;100.00;98662.88;5073167;28;20215;-82
2021/12/03 04:18:00;;;;;;;12.37;8.40;;;;;;;-0.89;100.00;98669.94;5067597;28;20205;-83
2021/12/03 04:20:30;;;;;;;12.13;8.37;;;;;;;-0.96;100.00;98664.06;5070825;28;20212;-82
2021/12/03 04:22:58;;;;;;;11.73;8.20;;;;;;;-0.83;100.00;98666.34;5069991;28;20200;-82
2021/12/03 04:25:26;;;;;;;12.70;8.50;;;;;;;-1.17;100.00;98673.22;5067294;28;20218;-82
2021/12/03 04:27:54;;;;;;;13.93;8.50;;;;;;;-1.01;100.00;98660.72;5075438;28;20207;-82
2021/12/03 04:30:27;;;;;;;13.73;9.17;;;;;;;-0.96;100.00;98661.47;5070740;28;20189;-83
2021/12/03 04:32:57;;;;;;;15.87;9.60;;;;;;;-1.03;100.00;98657.31;5010736;28;20257;-82
2021/12/03 04:35:28;;;;;;;14.40;9.00;;;;;;;-1.09;100.00;98661.78;5008308;28;20654;-83
2021/12/03 04:37:58;;;;;;;15.80;10.13;;;;;;;-1.03;100.00;98654.72;4973287;28;20203;-83
2021/12/03 04:40:27;;;;;;;15.87;10.13;;;;;;;-1.06;100.00;98653.91;4964991;28;20230;-82
2021/12/03 04:42:59;;;;;;;16.17;10.47;;;;;;;-1.02;100.00;98658.16;4974397;28;20195;-83
2021/12/03 04:45:28;;;;;;;17.77;10.40;;;;;;;-0.98;100.00;98660.63;4970906;28;20203;-83
2021/12/03 04:48:00;;;;;;;17.53;10.90;;;;;;;-1.01;100.00;98658.13;4970448;28;20211;-83
2021/12/03 04:50:33;;;;;;;17.37;10.60;;;;;;;-1.06;100.00;98656.50;4977774;28;20229;-83
2021/12/03 04:53:02;;;;;;;17.60;11.07;;;;;;;-0.93;100.00;98650.13;4990751;28;20195;-83
2021/12/03 04:55:30;;;;;;;17.80;11.17;;;;;;;-0.91;100.00;98653.53;5010305;28;20192;-83
2021/12/03 04:57:59;;;;;;;18.03;11.10;;;;;;;-0.84;100.00;98654.25;5068051;28;20202;-83
2021/12/03 05:00:30;;;;;;;15.43;11.03;;;;;;;-0.90;100.00;98663.03;5066889;28;20216;-83
2021/12/03 05:03:00;;;;;;;32.57;20.43;;;;;;;-1.36;100.00;98661.56;5064545;28;20193;-83
2021/12/03 05:05:32;;;;;;;17.80;11.07;;;;;;;-1.25;100.00;98661.34;5071650;28;20304;-83
2021/12/03 05:08:07;;;;;;;17.20;10.33;;;;;;;-1.31;100.00;98659.75;5074572;28;20192;-83
2021/12/03 05:10:38;;;;;;;17.53;10.90;;;;;;;-1.32;100.00;98663.22;5064487;28;20204;-83
2021/12/03 05:13:11;;;;;;;16.83;11.17;;;;;;;-1.35;100.00;98663.31;5069426;28;20184;-83
2021/12/03 05:15:40;;;;;;;19.00;11.17;;;;;;;-1.40;100.00;98659.97;5070333;28;20206;-83
2021/12/03 05:18:13;;;;;;;21.43;13.67;;;;;;;-1.43;100.00;98664.38;5068711;28;20199;-83
2021/12/03 05:20:45;;;;;;;28.00;15.77;;;;;;;-1.27;100.00;98665.69;5072093;28;20705;-83
2021/12/03 05:23:15;;;;;;;21.37;13.93;;;;;;;-1.22;100.00;98661.25;5070641;28;20193;-83
2021/12/03 05:25:44;;;;;;;20.83;12.33;;;;;;;-1.32;100.00;98668.44;5073015;28;20203;-83
2021/12/03 05:28:12;;;;;;;20.53;12.63;;;;;;;-1.28;100.00;98674.38;5067810;28;20194;-83
2021/12/03 05:30:40;;;;;;;19.47;11.93;;;;;;;-1.38;100.00;98670.31;5067011;28;20196;-83
2021/12/03 05:33:09;;;;;;;23.07;13.73;;;;;;;-1.47;100.00;98671.38;5071217;28;20205;-83
2021/12/03 05:35:38;;;;;;;18.70;12.57;;;;;;;-1.32;100.00;98667.56;5067139;28;20249;-83
2021/12/03 05:38:09;;;;;;;15.97;9.70;;;;;;;-1.28;100.00;98675.25;5068681;28;20216;-83
2021/12/03 05:40:39;;;;;;;18.50;11.03;;;;;;;-1.33;100.00;98676.25;5064761;28;20216;-83
2021/12/03 05:43:07;;;;;;;16.70;11.23;;;;;;;-1.40;100.00;98685.06;5073901;28;20188;-83
2021/12/03 05:45:37;;;;;;;16.73;10.43;;;;;;;-1.29;100.00;98691.72;5066341;28;20585;-83
2021/12/03 05:48:06;;;;;;;19.17;11.10;;;;;;;-1.18;100.00;98681.91;5068147;28;20200;-83
2021/12/03 05:50:35;;;;;;;17.67;11.10;;;;;;;-1.12;100.00;98680.06;5069757;28;20236;-82
2021/12/03 05:53:05;;;;;;;18.47;11.33;;;;;;;-0.96;100.00;98674.47;5073851;28;20185;-83
2021/12/03 05:55:35;;;;;;;19.30;12.07;;;;;;;-0.97;100.00;98671.88;5069711;28;20184;-83
2021/12/03 05:58:03;;;;;;;17.43;11.20;;;;;;;-1.03;100.00;98670.31;5066288;28;20197;-83
2021/12/03 06:00:36;;;;;;;16.93;10.83;;;;;;;-1.05;100.00;98666.03;5069663;28;20216;-82
2021/12/03 06:03:08;;;;;;;18.30;11.47;;;;;;;-1.11;100.00;98669.63;5068415;28;20184;-83
2021/12/03 06:05:36;;;;;;;17.13;10.70;;;;;;;-1.07;100.00;98671.25;5069108;28;20204;-82
2021/12/03 06:08:05;;;;;;;17.27;11.17;;;;;;;-1.09;100.00;98669.59;5073625;28;20242;-82
2021/12/03 06:10:36;;;;;;;17.60;10.77;;;;;;;-1.15;100.00;98668.03;5069028;28;20624;-83
2021/12/03 06:13:04;;;;;;;20.80;11.87;;;;;;;-1.18;100.00;98665.47;5069948;28;20195;-82
2021/12/03 06:15:33;;;;;;;20.67;11.90;;;;;;;-1.25;100.00;98666.53;5069358;28;20257;-82
2021/12/03 06:18:01;;;;;;;23.43;13.73;;;;;;;-1.16;100.00;98664.56;5065362;28;20197;-82
2021/12/03 06:20:30;;;;;;;20.00;12.50;;;;;;;-1.23;100.00;98678.59;5068814;28;20228;-83
2021/12/03 06:22:58;;;;;;;19.03;12.00;;;;;;;-1.21;100.00;98682.00;5073714;28;20799;-83
2021/12/03 06:25:27;;;;;;;19.43;12.40;;;;;;;-1.16;100.00;98687.06;5072085;28;20254;-82
2021/12/03 06:27:58;;;;;;;19.20;11.70;;;;;;;-1.14;100.00;98684.47;5061108;28;20276;-83
2021/12/03 06:30:28;;;;;;;21.27;11.77;;;;;;;-1.11;100.00;98700.81;5071087;28;20227;-83
2021/12/03 06:32:57;;;;;;;20.67;13.07;;;;;;;-1.21;100.00;98696.72;5071150;28;20207;-83
2021/12/03 06:35:31;;;;;;;23.00;13.33;;;;;;;-1.08;100.00;98705.06;5067453;28;20211;-82
2021/12/03 06:38:00;;;;;;;20.37;13.07;;;;;;;-0.95;100.00;98709.09;5070362;28;20188;-82
2021/12/03 06:40:28;;;;;;;21.33;13.13;;;;;;;-0.85;100.00;98714.91;5069400;28;20282;-83
2021/12/03 06:42:58;;;;;;;21.10;12.73;;;;;;;-1.00;100.00;98717.00;5073634;28;20196;-83
2021/12/03 06:45:28;;;;;;;19.67;13.20;;;;;;;-1.06;100.00;98730.16;5073676;28;20207;-82
2021/12/03 06:47:56;;;;;;;20.67;12.80;;;;;;;-1.01;100.00;98730.03;5064408;28;20708;-83
2021/12/03 06:50:24;;;;;;;20.67;12.87;;;;;;;-0.89;100.00;98724.53;5066508;28;20192;-82
2021/12/03 06:52:57;;;;;;;21.43;13.47;;;;;;;-0.96;100.00;98731.63;5063879;28;20201;-83
2021/12/03 06:55:26;;;;;;;21.80;13.70;;;;;;;-0.84;100.00;98729.63;5063934;28;20234;-83
2021/12/03 06:57:57;;;;;;;19.83;13.37;;;;;;;-0.79;100.00;98723.41;5070795;28;20268;-82
2021/12/03 07:00:26;;;;;;;21.20;12.87;;;;;;;-0.89;100.00;98734.91;5070639;28;20208;-83
2021/12/03 07:02:55;;;;;;;22.40;13.63;;;;;;;-0.81;100.00;98740.78;5070341;28;20215;-82
2021/12/03 07:05:24;;;;;;;21.27;13.13;;;;;;;-0.79;100.00;98743.34;5069269;28;20192;-83
2021/12/03 07:07:52;;;;;;;23.83;14.43;;;;;;;-0.79;100.00;98732.94;5072894;28;20203;-83
2021/12/03 07:10:21;;;;;;;23.07;13.17;;;;;;;-0.75;100.00;98737.19;5065515;28;20193;-82
2021/12/03 07:12:50;;;;;;;23.73;13.97;;;;;;;-0.80;100.00;98732.09;5066215;28;20215;-82
2021/12/03 07:15:19;;;;;;;22.70;14.03;;;;;;;-0.78;100.00;98734.66;5067295;28;20193;-83
2021/12/03 07:17:51;;;;;;;25.57;15.03;;;;;;;-0.80;100.00;98723.44;5067930;28;20197;-83
2021/12/03 07:20:21;;;;;;;20.27;12.80;;;;;;;-0.74;100.00;98728.50;5064735;28;20648;-83
2021/12/03 07:22:50;;;;;;;22.60;13.13;;;;;;;-0.68;100.00;98730.91;5073624;28;20196;-83
2021/12/03 07:25:19;;;;;;;22.53;13.70;;;;;;;-0.71;100.00;98729.25;5071221;28;20231;-82
2021/12/03 07:27:49;;;;;;;23.10;14.10;;;;;;;-0.80;100.00;98742.50;5073327;28;20226;-82
2021/12/03 07:30:19;;;;;;;22.40;14.40;;;;;;;-0.92;100.00;98745.41;5066649;28;20215;-83
2021/12/03 07:32:50;;;;;;;23.70;13.87;;;;;;;-0.81;100.00;98748.59;5014246;28;20202;-83
2021/12/03 07:35:18;;;;;;;21.33;13.87;;;;;;;-0.70;100.00;98749.16;5007848;28;20199;-82
2021/12/03 07:37:47;;;;;;;26.43;14.13;;;;;;;-0.71;100.00;98738.81;5007031;28;20233;-84
2021/12/03 07:40:15;;;;;;;21.17;13.37;;;;;;;-0.72;100.00;98740.56;5005319;28;20674;-84
2021/12/03 07:42:44;;;;;;;23.23;14.67;;;;;;;-0.65;100.00;98744.72;5010557;28;20214;-84
2021/12/03 07:45:16;;;;;;;23.13;14.70;;;;;;;-0.59;100.00;98739.34;5010903;28;20191;-84
2021/12/03 07:47:45;;;;;;;22.77;14.13;;;;;;;-0.50;100.00;98740.84;5011885;28;20198;-84
2021/12/03 07:50:15;;;;;;;27.10;15.17;;;;;;;-0.54;100.00;98736.63;5019635;28;20199;-84
2021/12/03 07:52:45;;;;;;;25.73;15.27;;;;;;;-0.44;100.00;98734.63;5068912;28;20647;-84
2021/12/03 07:55:13;;;;;;;32.33;17.50;;;;;;;-0.64;100.00;98750.75;5071021;28;20189;-84
2021/12/03 07:57:48;;;;;;;28.90;16.40;;;;;;;-0.53;100.00;98742.69;5071867;28;20200;-84
2021/12/03 08:00:17;;;;;;;28.40;16.67;;;;;;;-0.35;100.00;98737.84;5070310;28;20200;-84
2021/12/03 08:03:09;;;;;;;26.97;16.50;;;;;;;-0.37;100.00;98739.66;5079914;28;20254;-84
2021/12/03 08:05:40;;;;;;;29.40;17.77;;;;;;;-0.47;100.00;98727.78;5069634;28;20197;-84
2021/12/03 08:08:08;;;;;;;26.87;16.27;;;;;;;-0.28;100.00;98742.91;5076365;28;20192;-84
2021/12/03 08:10:37;;;;;;;28.53;16.00;;;;;;;-0.37;100.00;98744.84;5071687;28;20249;-84
2021/12/03 08:13:05;;;;;;;31.03;18.07;;;;;;;-0.28;100.00;98745.50;5075960;28;20196;-84
2021/12/03 08:15:37;;;;;;;26.83;16.27;;;;;;;-0.29;100.00;98742.00;5070017;28;20208;-84
2021/12/03 08:18:06;;;;;;;27.60;16.60;;;;;;;-0.23;100.00;98741.00;5066652;28;20257;-84
2021/12/03 08:20:35;;;;;;;26.67;16.07;;;;;;;-0.32;100.00;98740.34;5069143;28;20265;-84
2021/12/03 08:23:05;;;;;;;24.13;15.27;;;;;;;-0.30;100.00;98742.91;5075621;28;20215;-84
2021/12/03 08:25:34;;;;;;;25.63;15.73;;;;;;;-0.41;100.00;98756.22;5071766;28;20185;-84
2021/12/03 08:28:02;;;;;;;23.80;14.70;;;;;;;-0.37;100.00;98762.22;5063752;28;20204;-83
2021/12/03 08:30:30;;;;;;;26.67;16.67;;;;;;;-0.37;100.00;98757.84;5072425;28;20203;-84
2021/12/03 08:33:00;;;;;;;26.20;17.17;;;;;;;-0.54;100.00;98754.84;5071185;28;20246;-87
2021/12/03 08:35:28;;;;;;;26.07;15.80;;;;;;;-0.48;100.00;98754.69;5072780;28;20199;-84
2021/12/03 08:37:58;;;;;;;26.13;15.23;;;;;;;-0.33;100.00;98758.63;5068325;28;20265;-83
2021/12/03 08:40:28;;;;;;;26.20;14.33;;;;;;;-0.41;100.00;98747.56;5068736;28;20185;-84
2021/12/03 08:42:57;;;;;;;26.27;16.77;;;;;;;-0.37;100.00;98746.59;5070817;28;20762;-84
2021/12/03 08:45:26;;;;;;;26.93;16.03;;;;;;;-0.31;100.00;98756.81;5072112;28;20208;-84
2021/12/03 08:47:56;;;;;;;25.47;16.27;;;;;;;-0.37;100.00;98752.66;5072096;28;20250;-84
2021/12/03 08:50:30;;;;;;;27.77;15.77;;;;;;;-0.14;100.00;98746.81;5034382;28;20231;-84
2021/12/03 08:53:17;;;;;;;24.07;16.07;;;;;;;-0.25;100.00;98746.25;5075155;28;20203;-84
2021/12/03 08:55:47;;;;;;;27.57;16.33;;;;;;;-0.26;100.00;98738.50;5073875;28;20196;-83
2021/12/03 08:58:16;;;;;;;26.57;16.47;;;;;;;-0.31;100.00;98746.41;5074711;28;20250;-83
2021/12/03 09:00:45;;;;;;;28.73;16.03;;;;;;;-0.19;100.00;98742.63;4975210;28;20702;-83
2021/12/03 09:03:14;;;;;;;27.87;16.13;;;;;;;-0.18;100.00;98740.00;4971106;28;20245;-83
2021/12/03 09:05:44;;;;;;;26.57;16.13;;;;;;;-0.07;100.00;98748.38;4965489;28;20199;-83
2021/12/03 09:08:13;;;;;;;24.03;15.23;;;;;;;-0.13;100.00;98751.13;4968976;28;20278;-83
2021/12/03 09:10:42;;;;;;;24.47;15.80;;;;;;;-0.11;100.00;98751.94;4970156;28;20192;-83
2021/12/03 09:13:12;;;;;;;27.47;15.67;;;;;;;-0.02;100.00;98751.66;4967076;28;20257;-83
2021/12/03 09:15:44;;;;;;;28.00;16.37;;;;;;;0.05;100.00;98743.69;4972122;28;20208;-83
2021/12/03 09:18:22;;;;;;;23.93;14.50;;;;;;;0.04;100.00;98749.81;4989866;28;20189;-82
2021/12/03 09:21:14;;;;;;;24.17;15.57;;;;;;;0.17;100.00;98753.75;5075306;28;20204;-83
2021/12/03 09:23:53;;;;;;;25.60;15.07;;;;;;;0.19;100.00;98749.34;5069700;28;20212;-84
2021/12/03 09:26:24;;;;;;;26.80;15.10;;;;;;;0.22;100.00;98755.34;5067375;28;20200;-83
2021/12/03 09:29:00;;;;;;;26.73;15.57;;;;;;;0.24;100.00;98750.94;5073924;28;20203;-83
2021/12/03 09:31:28;;;;;;;24.87;14.70;;;;;;;0.21;100.00;98751.03;5073916;28;20192;-83
2021/12/03 09:33:57;;;;;;;24.93;14.43;;;;;;;0.02;100.00;98755.06;5068693;28;20210;-83
2021/12/03 09:36:26;;;;;;;25.13;15.37;;;;;;;0.04;100.00;98755.00;5070255;28;20196;-83
2021/12/03 09:38:54;;;;;;;23.47;13.37;;;;;;;0.12;100.00;98745.25;5074501;28;20200;-84
2021/12/03 09:41:22;;;;;;;18.63;11.90;;;;;;;0.28;100.00;98742.13;5065828;28;20204;-83
2021/12/03 09:43:55;;;;;;;22.57;12.83;;;;;;;0.37;100.00;98743.63;5067195;28;20212;-83
2021/12/03 09:46:25;;;;;;;22.23;13.07;;;;;;;0.33;100.00;98752.44;5073609;28;20200;-83
2021/12/03 09:51:52;;;;;;;24.47;14.07;;;;;;;0.49;100.00;98737.22;5066800;28;20239;-83
2021/12/03 09:54:29;;;;;;;24.37;13.80;;;;;;;0.65;100.00;98742.78;5072002;28;20207;-83
2021/12/03 09:57:02;;;;;;;20.27;13.07;;;;;;;0.57;100.00;98737.81;5071557;28;20195;-83
2021/12/03 10:02:23;;;;;;;23.77;13.67;;;;;;;0.48;100.00;98731.16;5030482;28;20228;-83
2021/12/03 10:05:37;;;;;;;22.87;13.67;;;;;;;0.44;100.00;98724.31;5070779;28;20188;-83
2021/12/03 10:13:37;;;;;;;20.13;12.67;;;;;;;0.61;100.00;98718.59;5011638;28;20301;-83
2021/12/03 10:18:54;;;;;;;19.80;12.33;;;;;;;0.67;100.00;98726.19;5003350;28;20760;-83
2021/12/03 10:21:56;;;;;;;21.53;12.27;;;;;;;0.73;100.00;98712.97;5005378;28;20202;-83
2021/12/03 10:24:52;;;;;;;18.73;11.40;;;;;;;0.74;100.00;98717.28;5010094;28;20201;-84
2021/12/03 10:27:45;;;;;;;18.27;11.50;;;;;;;0.83;100.00;98709.19;5070178;28;20203;-83
2021/12/03 10:39:12;;;;;;;18.40;12.50;;;;;;;1.40;100.00;98699.47;5067478;28;20215;-84
2021/12/03 10:41:53;;;;;;;26.10;15.03;;;;;;;1.49;100.00;98698.31;5067679;28;20200;-84
2021/12/03 10:47:16;;;;;;;29.83;17.33;;;;;;;1.80;100.00;98696.31;5067588;28;20192;-84
2021/12/03 10:50:11;;;;;;;18.13;11.50;;;;;;;1.67;100.00;98685.47;5008962;28;20281;-84
2021/12/03 10:52:55;;;;;;;54.83;30.27;;;;;;;1.85;100.00;98676.13;5003736;28;20791;-84
2021/12/03 11:13:02;;;;;;;21.23;12.63;;;;;;;1.75;100.00;98658.25;5076800;28;20197;-84
2021/12/03 14:39:07;;;;;;;10.00;6.33;;;;;;;1.92;100.00;98462.63;5065393;28;20212;-81
2021/12/03 14:41:44;;;;;;;9.63;6.07;;;;;;;1.87;100.00;98459.38;5065184;28;20212;-82
2021/12/03 14:44:19;;;;;;;8.20;6.13;;;;;;;1.75;100.00;98458.09;5066956;28;20253;-82
2021/12/03 14:49:50;;;;;;;8.53;5.87;;;;;;;1.80;100.00;98453.53;5066869;27;20211;-82
2021/12/03 14:52:30;;;;;;;10.07;6.30;;;;;;;1.77;100.00;98453.66;5066091;28;20252;-82
2021/12/03 14:55:03;;;;;;;10.47;6.43;;;;;;;1.81;100.00;98452.63;5065302;28;20289;-82
2021/12/03 14:57:45;;;;;;;14.37;7.47;;;;;;;1.84;100.00;98451.66;5066335;28;20199;-82
2021/12/03 15:00:20;;;;;;;12.27;6.93;;;;;;;1.81;100.00;98451.78;5070610;27;20233;-82
2021/12/03 15:05:47;;;;;;;10.87;7.83;;;;;;;1.76;100.00;98458.94;5063982;28;20204;-82
2021/12/03 15:08:22;;;;;;;13.77;8.00;;;;;;;1.67;100.00;98463.63;5065281;28;20241;-82
2021/12/03 15:33:38;;;;;;;13.07;8.17;;;;;;;1.43;100.00;98421.06;4994609;28;20195;-81
2021/12/03 15:36:12;;;;;;;15.93;9.23;;;;;;;1.43;100.00;98426.28;5043972;28;20204;-82
2021/12/03 15:55:52;;;;;;;14.53;8.67;;;;;;;1.35;100.00;98409.22;5056512;27;20205;-82
2021/12/03 15:58:35;;;;;;;15.97;9.03;;;;;;;1.37;100.00;98399.59;5051904;28;20193;-82
2021/12/03 16:03:57;;;;;;;21.20;10.30;;;;;;;1.34;100.00;98397.09;5051426;28;20190;-82
2021/12/03 16:06:31;;;;;;;22.77;11.53;;;;;;;1.30;100.00;98400.75;5047473;28;20242;-83
2021/12/03 16:09:08;;;;;;;13.47;8.60;;;;;;;1.32;100.00;98402.38;5051029;28;20185;-82
2021/12/03 16:11:43;;;;;;;17.63;10.80;;;;;;;1.22;100.00;98400.19;5047913;28;20197;-82
2021/12/03 16:14:40;;;;;;;29.40;15.03;;;;;;;1.25;100.00;98403.50;5055997;27;20201;-82
2021/12/03 16:17:20;;;;;;;42.30;18.87;;;;;;;1.28;100.00;98394.72;5057543;27;20205;-81
2021/12/03 16:45:29;;;;;;;12.67;7.87;;;;;;;1.46;100.00;98407.06;5051042;28;20208;-82
2021/12/03 16:48:29;;;;;;;13.27;8.87;;;;;;;1.44;100.00;98401.88;5049662;28;20193;-82
2021/12/03 16:51:11;;;;;;;15.87;9.70;;;;;;;1.38;100.00;98402.13;5050761;28;20196;-81
2021/12/03 16:53:41;;;;;;;16.73;10.43;;;;;;;1.40;100.00;98399.47;5052758;27;20700;-81